Time;durP1;ratioP1;P1;durP2;ratioP2;P2;SDS_P1;SDS_P2;PMS_P1;PMS_P2;Temp;Humidity;BMP_temperature;BMP_pressure;BME280_temperature;BME280_humidity;BME280_pressure;Samples;Min_cycle;Max_cycle;Signal;HPM_P1;HPM_P2
2023/12/27 00:02:12;;;;;;;10.17;9.57;;;;;;;10.88;66.10;93087.88;5062618;28;20222;-75
2023/12/27 00:04:39;;;;;;;11.00;10.10;;;;;;;10.95;64.77;93086.53;5071245;28;20194;-75
2023/12/27 00:07:04;;;;;;;9.80;9.30;;;;;;;10.95;64.81;93102.19;5065550;28;20224;-75
2023/12/27 00:09:29;;;;;;;10.27;9.60;;;;;;;10.95;64.85;93107.44;5065389;28;20232;-75
2023/12/27 00:11:55;;;;;;;10.87;9.77;;;;;;;11.07;64.25;93101.88;5069873;28;20221;-76
2023/12/27 00:14:20;;;;;;;10.70;9.60;;;;;;;11.07;64.33;93105.28;5061104;28;20241;-75
2023/12/27 00:16:46;;;;;;;10.37;9.77;;;;;;;10.97;65.37;93109.78;5069554;28;20300;-75
2023/12/27 00:19:11;;;;;;;10.53;9.80;;;;;;;11.07;64.21;93107.88;5067967;28;20246;-75
2023/12/27 00:21:36;;;;;;;11.40;10.50;;;;;;;11.03;64.37;93112.09;5058048;28;20230;-76
2023/12/27 00:24:02;;;;;;;11.27;10.37;;;;;;;10.88;64.65;93104.31;5072169;28;20177;-78
2023/12/27 00:26:27;;;;;;;11.30;10.67;;;;;;;10.93;64.60;93112.13;5069721;28;20209;-75
2023/12/27 00:28:52;;;;;;;11.43;10.40;;;;;;;11.04;64.46;93134.56;5075264;28;20214;-75
2023/12/27 00:31:18;;;;;;;11.63;10.73;;;;;;;10.95;64.92;93123.09;5059638;28;20190;-75
2023/12/27 00:33:43;;;;;;;12.73;10.43;;;;;;;11.07;64.68;93134.00;5063500;28;20214;-75
2023/12/27 00:36:09;;;;;;;11.20;10.37;;;;;;;11.08;65.12;93132.94;5059968;28;20198;-74
2023/12/27 00:38:37;;;;;;;10.47;9.70;;;;;;;11.04;65.04;93142.38;5064501;28;20217;-75
2023/12/27 00:41:04;;;;;;;12.33;11.03;;;;;;;11.04;65.24;93138.97;5061623;28;20245;-76
2023/12/27 00:43:29;;;;;;;10.30;9.40;;;;;;;11.00;65.59;93145.81;5037264;28;20221;-75
2023/12/27 00:45:55;;;;;;;11.60;10.83;;;;;;;10.95;65.73;93133.53;5033771;28;20175;-74
2023/12/27 00:48:20;;;;;;;10.87;10.17;;;;;;;11.05;65.16;93140.56;5042262;28;20230;-73
2023/12/27 00:50:45;;;;;;;10.67;9.57;;;;;;;10.93;65.41;93119.97;5039965;28;20198;-73
2023/12/27 00:53:11;;;;;;;10.93;10.23;;;;;;;10.88;65.82;93133.03;5062769;28;20221;-73
2023/12/27 00:55:36;;;;;;;10.73;9.90;;;;;;;10.79;65.96;93144.28;5056986;28;20188;-74
2023/12/27 00:58:02;;;;;;;10.97;10.23;;;;;;;10.72;66.30;93152.41;5056600;28;20226;-74
2023/12/27 01:00:27;;;;;;;11.50;10.50;;;;;;;10.58;66.67;93148.03;5066207;28;20201;-73
2023/12/27 01:02:53;;;;;;;11.40;10.33;;;;;;;10.62;66.96;93149.03;5057918;28;20248;-73
2023/12/27 01:05:18;;;;;;;11.33;10.27;;;;;;;10.52;67.41;93159.53;5048416;28;20261;-73
2023/12/27 01:07:43;;;;;;;11.87;10.80;;;;;;;10.39;68.14;93147.81;5049022;28;20225;-73
2023/12/27 01:10:09;;;;;;;11.63;10.63;;;;;;;10.53;67.26;93141.00;5049645;28;20174;-73
2023/12/27 01:12:35;;;;;;;10.80;9.97;;;;;;;10.40;67.35;93140.72;5054465;28;20232;-73
2023/12/27 01:15:00;;;;;;;12.87;11.77;;;;;;;10.20;67.03;93152.00;5069282;28;20206;-74
2023/12/27 01:17:25;;;;;;;11.80;10.67;;;;;;;10.02;67.65;93160.34;5065671;28;20221;-74
2023/12/27 01:19:51;;;;;;;16.20;12.07;;;;;;;9.93;68.07;93155.91;5081698;28;20265;-73
2023/12/27 01:22:16;;;;;;;12.03;10.90;;;;;;;9.82;68.02;93155.88;5058138;28;20252;-73
2023/12/27 01:24:41;;;;;;;12.57;11.53;;;;;;;9.45;69.85;93154.53;5068337;28;20232;-73
2023/12/27 01:27:07;;;;;;;10.37;9.67;;;;;;;9.66;70.56;93140.50;5059630;28;20985;-73
2023/12/27 01:29:32;;;;;;;11.20;10.10;;;;;;;10.18;69.52;93129.84;5066069;28;20225;-73
2023/12/27 01:31:57;;;;;;;10.03;9.43;;;;;;;10.48;69.52;93156.66;5063251;28;20237;-73
2023/12/27 01:34:23;;;;;;;10.17;9.57;;;;;;;10.60;70.05;93154.53;5065638;28;20193;-72
2023/12/27 01:36:48;;;;;;;12.00;10.80;;;;;;;10.75;69.17;93159.75;5066413;28;20225;-72
2023/12/27 01:39:13;;;;;;;11.80;10.60;;;;;;;10.67;70.40;93156.88;5068701;28;20200;-73
2023/12/27 01:41:39;;;;;;;11.60;10.43;;;;;;;10.71;70.01;93163.91;5068403;28;20244;-73
2023/12/27 01:44:04;;;;;;;11.20;10.27;;;;;;;10.61;69.62;93173.59;5061686;28;20198;-73
2023/12/27 01:46:30;;;;;;;11.53;10.57;;;;;;;10.67;70.04;93181.16;5060371;28;20189;-72
2023/12/27 01:48:57;;;;;;;10.77;10.00;;;;;;;10.66;70.08;93169.13;5067703;28;20213;-72
2023/12/27 01:51:23;;;;;;;10.70;9.70;;;;;;;10.60;70.96;93151.94;5057857;28;20220;-73
2023/12/27 01:53:49;;;;;;;11.73;10.63;;;;;;;10.59;71.17;93171.25;5069246;28;20186;-73
2023/12/27 01:56:15;;;;;;;10.67;9.77;;;;;;;10.61;71.37;93166.56;5065843;28;20174;-76
2023/12/27 01:58:41;;;;;;;15.13;11.27;;;;;;;10.64;71.91;93183.50;5063648;28;20217;-75
2023/12/27 02:01:06;;;;;;;11.60;10.33;;;;;;;10.44;71.99;93171.28;5063492;28;20178;-74
2023/12/27 02:03:31;;;;;;;11.23;10.40;;;;;;;10.47;72.37;93159.53;5068094;28;20221;-75
2023/12/27 02:05:57;;;;;;;12.37;11.37;;;;;;;10.53;72.35;93168.91;5067934;28;20243;-75
2023/12/27 02:08:23;;;;;;;10.97;9.73;;;;;;;10.67;72.81;93178.56;5057494;28;20228;-75
2023/12/27 02:10:49;;;;;;;11.13;10.00;;;;;;;10.62;73.06;93175.94;5066722;28;20189;-75
2023/12/27 02:13:14;;;;;;;11.53;10.77;;;;;;;10.53;72.71;93180.16;5069786;28;20209;-75
2023/12/27 02:15:40;;;;;;;12.07;11.27;;;;;;;10.56;72.73;93197.91;5065752;28;20252;-75
2023/12/27 02:18:07;;;;;;;11.70;10.70;;;;;;;10.49;73.28;93192.16;5068974;28;20218;-75
2023/12/27 02:20:33;;;;;;;11.17;10.17;;;;;;;10.54;73.76;93186.91;5071197;28;20292;-74
2023/12/27 02:23:02;;;;;;;10.57;9.83;;;;;;;10.63;73.19;93193.16;5071691;28;20247;-74
2023/12/27 02:25:28;;;;;;;11.93;10.80;;;;;;;10.38;73.97;93184.59;5060996;28;20179;-75
2023/12/27 02:27:53;;;;;;;11.10;10.33;;;;;;;10.58;75.47;93177.53;5064846;28;20218;-75
2023/12/27 02:30:20;;;;;;;11.67;10.70;;;;;;;10.51;73.71;93179.63;5085976;28;20220;-75
2023/12/27 02:32:47;;;;;;;11.00;10.30;;;;;;;10.50;73.52;93183.28;5068948;28;20217;-74
2023/12/27 02:35:13;;;;;;;11.93;10.83;;;;;;;10.56;74.36;93181.44;5066957;28;20523;-75
2023/12/27 02:37:38;;;;;;;11.67;10.67;;;;;;;10.48;74.97;93187.97;5056964;28;20237;-75
2023/12/27 02:40:04;;;;;;;12.33;10.80;;;;;;;10.42;74.72;93175.97;5051104;28;20194;-76
2023/12/27 02:42:30;;;;;;;11.33;10.53;;;;;;;10.43;74.61;93169.72;5057459;28;20217;-75
2023/12/27 02:44:55;;;;;;;11.33;10.27;;;;;;;10.34;75.29;93158.25;5062076;28;20272;-74
2023/12/27 02:47:20;;;;;;;11.07;10.07;;;;;;;10.42;75.63;93194.25;5049224;28;20226;-75
2023/12/27 02:49:46;;;;;;;12.90;11.73;;;;;;;10.43;75.73;93189.84;5047119;28;20265;-75
2023/12/27 02:52:11;;;;;;;10.47;9.50;;;;;;;10.39;77.06;93189.56;5045550;28;20267;-75
2023/12/27 02:54:37;;;;;;;12.17;10.97;;;;;;;10.40;77.92;93192.94;5046305;28;20194;-75
2023/12/27 02:57:02;;;;;;;10.63;9.73;;;;;;;10.25;77.86;93187.75;5050934;28;20252;-75
2023/12/27 02:59:28;;;;;;;10.80;10.10;;;;;;;10.42;76.84;93185.63;5044788;28;20186;-75
2023/12/27 03:01:53;;;;;;;10.50;9.63;;;;;;;10.47;77.19;93196.88;5049432;28;20248;-75
2023/12/27 03:04:18;;;;;;;11.67;10.57;;;;;;;10.43;76.63;93198.41;5062123;28;20194;-75
2023/12/27 03:06:44;;;;;;;11.63;10.40;;;;;;;10.55;76.80;93206.00;5068565;28;20221;-76
2023/12/27 03:09:10;;;;;;;11.03;10.03;;;;;;;10.39;76.55;93194.00;5068746;28;20216;-75
2023/12/27 03:11:35;;;;;;;10.00;9.27;;;;;;;10.48;76.59;93206.25;5071956;28;20205;-76
2023/12/27 03:14:01;;;;;;;11.10;10.33;;;;;;;10.50;76.51;93214.63;5061154;28;20186;-75
2023/12/27 03:16:28;;;;;;;11.17;10.37;;;;;;;10.44;76.52;93213.06;5062596;28;20725;-75
2023/12/27 03:18:54;;;;;;;11.50;10.57;;;;;;;10.42;76.59;93193.47;5070085;28;20214;-76
2023/12/27 03:21:19;;;;;;;10.63;10.03;;;;;;;10.33;76.28;93198.44;5066234;28;20222;-75
2023/12/27 03:23:44;;;;;;;11.53;9.87;;;;;;;10.40;76.19;93217.22;5046627;28;20229;-75
2023/12/27 03:26:10;;;;;;;11.13;10.43;;;;;;;10.41;77.72;93204.97;5048590;28;20859;-75
2023/12/27 03:28:35;;;;;;;15.07;10.03;;;;;;;10.39;76.71;93215.66;5068671;28;20251;-75
2023/12/27 03:31:00;;;;;;;11.23;10.37;;;;;;;10.40;76.61;93224.25;5068375;28;20274;-75
2023/12/27 03:33:26;;;;;;;10.70;10.00;;;;;;;10.39;76.41;93233.16;5066258;28;20241;-75
2023/12/27 03:35:52;;;;;;;10.63;9.57;;;;;;;10.29;76.01;93215.66;5069056;28;20197;-75
2023/12/27 03:38:17;;;;;;;8.97;8.57;;;;;;;10.40;75.72;93209.38;5058322;28;20225;-76
2023/12/27 03:40:43;;;;;;;10.50;9.70;;;;;;;10.20;76.16;93198.16;5066964;28;20189;-75
2023/12/27 03:43:08;;;;;;;10.27;9.47;;;;;;;10.26;76.00;93233.66;5061299;28;20221;-74
2023/12/27 03:45:34;;;;;;;10.07;9.30;;;;;;;10.35;75.77;93232.88;5066707;28;20192;-75
2023/12/27 03:47:59;;;;;;;11.80;10.80;;;;;;;10.31;76.17;93226.63;5056630;28;20218;-75
2023/12/27 03:50:25;;;;;;;9.97;9.37;;;;;;;10.33;75.86;93219.31;5047924;28;20249;-75
2023/12/27 03:52:50;;;;;;;10.13;9.33;;;;;;;10.26;76.26;93239.66;5049243;28;20217;-75
2023/12/27 03:55:17;;;;;;;11.47;10.50;;;;;;;10.19;76.09;93239.16;5045026;28;20187;-75
2023/12/27 03:57:43;;;;;;;11.40;10.60;;;;;;;10.27;75.58;93240.47;5050457;28;20230;-75
2023/12/27 04:00:12;;;;;;;11.13;9.73;;;;;;;10.19;75.47;93233.94;5050206;28;20170;-75
2023/12/27 04:02:37;;;;;;;11.33;10.23;;;;;;;10.16;76.11;93229.25;5048869;28;20234;-75
2023/12/27 04:05:03;;;;;;;11.53;10.70;;;;;;;10.11;76.20;93221.41;5065776;28;20180;-75
2023/12/27 04:07:29;;;;;;;9.90;8.90;;;;;;;10.12;76.12;93228.19;5065180;28;20233;-75
2023/12/27 04:09:55;;;;;;;11.33;10.40;;;;;;;10.09;76.48;93233.91;5069522;28;20245;-75
2023/12/27 04:12:20;;;;;;;11.10;10.30;;;;;;;10.01;76.99;93247.44;5064837;28;20228;-74
2023/12/27 04:14:45;;;;;;;11.17;10.03;;;;;;;9.87;77.73;93229.97;5071096;28;20198;-75
2023/12/27 04:17:11;;;;;;;12.33;11.27;;;;;;;10.16;77.29;93251.94;5062403;28;20213;-76
2023/12/27 04:19:36;;;;;;;11.77;10.60;;;;;;;10.19;77.61;93254.81;5069953;28;20211;-76
2023/12/27 04:22:01;;;;;;;11.87;11.00;;;;;;;10.02;76.88;93249.03;5064414;28;20229;-75
2023/12/27 04:24:27;;;;;;;10.77;9.93;;;;;;;9.76;77.85;93263.03;5047688;28;20195;-76
2023/12/27 04:26:52;;;;;;;10.57;9.87;;;;;;;9.61;77.44;93235.13;5049352;28;20214;-75
2023/12/27 04:29:17;;;;;;;11.27;10.13;;;;;;;9.96;77.36;93270.91;5048321;28;20269;-75
2023/12/27 04:31:43;;;;;;;11.70;10.07;;;;;;;9.91;77.28;93259.69;5043397;28;20234;-75
2023/12/27 04:34:08;;;;;;;12.13;11.20;;;;;;;9.86;77.59;93273.50;5043055;28;20198;-75
2023/12/27 04:36:35;;;;;;;12.80;11.80;;;;;;;10.00;77.90;93281.59;5040195;28;20238;-75
2023/12/27 04:39:00;;;;;;;12.03;9.87;;;;;;;9.95;78.86;93273.75;5066999;28;20177;-75
2023/12/27 04:41:26;;;;;;;11.67;10.67;;;;;;;9.82;77.80;93275.06;5070043;28;20250;-75
2023/12/27 04:43:51;;;;;;;11.97;10.97;;;;;;;9.84;78.31;93285.25;5070218;28;20249;-75
2023/12/27 04:46:16;;;;;;;14.57;12.27;;;;;;;9.71;78.28;93265.66;5062834;28;20205;-75
2023/12/27 04:48:42;;;;;;;11.67;10.87;;;;;;;9.71;78.46;93268.25;5048497;28;20256;-75
2023/12/27 04:51:07;;;;;;;12.80;11.50;;;;;;;9.57;79.31;93288.03;5046170;28;20185;-76
2023/12/27 04:53:33;;;;;;;12.13;11.20;;;;;;;9.62;78.64;93281.00;5048170;28;20222;-75
2023/12/27 04:55:58;;;;;;;13.00;10.97;;;;;;;9.51;78.76;93268.97;5047769;28;20189;-76
2023/12/27 04:58:23;;;;;;;11.33;10.63;;;;;;;9.47;77.85;93256.69;5060859;28;20855;-75
2023/12/27 05:00:49;;;;;;;11.77;10.83;;;;;;;9.56;77.89;93276.00;5075605;28;20181;-75
2023/12/27 05:03:14;;;;;;;11.57;10.57;;;;;;;9.65;77.92;93264.84;5064357;28;20213;-76
2023/12/27 05:05:40;;;;;;;10.37;9.77;;;;;;;9.74;76.87;93278.94;5064270;28;20186;-73
2023/12/27 05:08:05;;;;;;;11.30;10.43;;;;;;;9.82;76.80;93280.28;5066966;28;20288;-74
2023/12/27 05:10:30;;;;;;;12.00;10.97;;;;;;;9.89;76.71;93265.16;5070446;28;20189;-74
2023/12/27 05:12:56;;;;;;;12.17;11.27;;;;;;;9.92;76.95;93288.13;5066970;28;20228;-74
2023/12/27 05:15:21;;;;;;;10.97;10.07;;;;;;;9.97;76.37;93289.94;5069971;28;20181;-74
2023/12/27 05:17:47;;;;;;;11.37;10.40;;;;;;;9.87;77.11;93282.13;5067435;28;20224;-74
2023/12/27 05:20:13;;;;;;;11.93;10.97;;;;;;;9.96;77.41;93296.97;5065842;28;20249;-74
2023/12/27 05:22:40;;;;;;;9.70;8.77;;;;;;;9.88;77.81;93289.69;5068461;28;20225;-75
2023/12/27 05:25:06;;;;;;;11.33;10.63;;;;;;;9.90;79.91;93299.84;5068910;28;20176;-74
2023/12/27 05:27:32;;;;;;;11.80;10.70;;;;;;;9.96;77.45;93307.41;5056729;28;20232;-75
2023/12/27 05:29:58;;;;;;;10.17;9.37;;;;;;;9.82;77.59;93313.38;5062647;28;20190;-75
2023/12/27 05:32:23;;;;;;;10.17;9.53;;;;;;;9.70;77.66;93298.75;5065769;28;20229;-74
2023/12/27 05:34:49;;;;;;;11.90;11.13;;;;;;;9.78;77.62;93315.72;5059912;28;20217;-75
2023/12/27 05:37:14;;;;;;;10.83;9.83;;;;;;;9.84;77.99;93319.13;5067060;28;20217;-75
2023/12/27 05:39:39;;;;;;;11.87;10.90;;;;;;;9.77;78.17;93314.91;5063135;28;20209;-75
2023/12/27 05:42:05;;;;;;;10.93;10.03;;;;;;;9.71;78.45;93321.16;5065210;28;20359;-74
2023/12/27 05:44:30;;;;;;;13.87;10.53;;;;;;;9.60;78.51;93326.59;5069587;28;20219;-74
2023/12/27 05:46:56;;;;;;;11.57;10.43;;;;;;;9.64;78.92;93328.44;5070061;28;20235;-74
2023/12/27 05:49:21;;;;;;;11.00;10.13;;;;;;;9.59;78.91;93330.22;5071996;28;20221;-75
2023/12/27 05:51:46;;;;;;;12.23;11.17;;;;;;;9.54;79.19;93333.59;5066739;28;20226;-74
2023/12/27 05:54:13;;;;;;;11.23;10.27;;;;;;;9.50;79.83;93350.81;5050447;28;20190;-75
2023/12/27 05:56:39;;;;;;;11.80;11.00;;;;;;;9.61;80.00;93351.63;5040154;28;20210;-75
2023/12/27 05:59:05;;;;;;;11.13;10.37;;;;;;;9.59;79.55;93364.13;5050883;28;20182;-75
2023/12/27 06:01:30;;;;;;;11.67;10.67;;;;;;;9.60;79.54;93369.06;5046476;28;20209;-75
2023/12/27 06:03:55;;;;;;;11.57;10.50;;;;;;;9.52;79.65;93355.75;5051285;28;20198;-75
2023/12/27 06:06:21;;;;;;;11.97;10.93;;;;;;;9.55;80.11;93378.72;5067196;28;20198;-75
2023/12/27 06:08:46;;;;;;;11.10;10.17;;;;;;;9.66;80.53;93377.72;5069297;28;20241;-75
2023/12/27 06:11:12;;;;;;;10.47;9.77;;;;;;;9.51;80.54;93369.81;5071790;28;20190;-74
2023/12/27 06:13:40;;;;;;;11.67;10.53;;;;;;;9.55;80.72;93386.53;5072752;28;20222;-75
2023/12/27 06:16:06;;;;;;;12.23;11.03;;;;;;;9.50;80.90;93371.66;5064102;28;20242;-74
2023/12/27 06:18:31;;;;;;;11.77;10.67;;;;;;;9.59;81.46;93384.97;5060964;28;20221;-75
2023/12/27 06:20:56;;;;;;;12.37;11.27;;;;;;;9.66;81.94;93390.75;5078098;28;20222;-74
2023/12/27 06:23:22;;;;;;;11.20;10.43;;;;;;;9.63;82.08;93402.47;5069605;28;20237;-75
2023/12/27 06:25:47;;;;;;;11.20;10.27;;;;;;;9.68;82.44;93401.72;5071322;28;20193;-76
2023/12/27 06:28:12;;;;;;;12.33;11.33;;;;;;;9.54;81.88;93382.38;5072482;28;20248;-75
2023/12/27 06:30:38;;;;;;;12.30;11.20;;;;;;;9.47;82.63;93387.00;5061077;28;20193;-75
2023/12/27 06:33:03;;;;;;;12.30;11.03;;;;;;;9.60;82.07;93391.78;5072278;28;20213;-75
2023/12/27 06:35:28;;;;;;;11.87;10.87;;;;;;;9.63;81.76;93376.41;5072891;28;20190;-76
2023/12/27 06:37:54;;;;;;;12.50;11.70;;;;;;;9.66;81.48;93375.13;5071199;28;20229;-74
2023/12/27 06:40:19;;;;;;;12.90;11.83;;;;;;;9.77;81.88;93382.72;5067052;28;20198;-74
2023/12/27 06:42:45;;;;;;;11.17;10.33;;;;;;;9.60;81.29;93386.56;5060563;28;20237;-76
2023/12/27 06:45:10;;;;;;;12.73;11.63;;;;;;;9.45;81.88;93383.84;5045241;28;20190;-74
2023/12/27 06:47:36;;;;;;;12.10;10.87;;;;;;;9.42;81.75;93373.94;5061796;28;20244;-75
2023/12/27 06:50:03;;;;;;;12.57;11.40;;;;;;;9.53;81.61;93394.59;5066493;28;21001;-74
2023/12/27 06:52:29;;;;;;;11.87;10.73;;;;;;;9.55;81.76;93399.56;5056155;28;20260;-75
2023/12/27 06:54:54;;;;;;;12.33;11.27;;;;;;;9.69;81.96;93392.88;5039623;28;20247;-74
2023/12/27 06:57:19;;;;;;;11.53;10.57;;;;;;;9.43;84.11;93368.47;5049665;28;20229;-75
2023/12/27 06:59:46;;;;;;;13.07;11.77;;;;;;;9.71;80.23;93419.47;5046810;28;20270;-75
2023/12/27 07:02:11;;;;;;;12.40;11.50;;;;;;;9.72;79.62;93419.22;5055695;28;20240;-75
2023/12/27 07:04:37;;;;;;;10.83;10.13;;;;;;;9.71;79.39;93424.69;5053288;28;20556;-75
2023/12/27 07:07:03;;;;;;;11.43;10.63;;;;;;;9.74;79.53;93424.19;5072677;28;20266;-75
2023/12/27 07:09:28;;;;;;;11.23;10.23;;;;;;;9.80;78.72;93442.19;5066857;28;20248;-74
2023/12/27 07:11:53;;;;;;;10.13;9.30;;;;;;;9.83;78.51;93440.91;5075718;28;20240;-74
2023/12/27 07:14:19;;;;;;;11.40;10.40;;;;;;;9.79;78.53;93445.03;5072936;28;20190;-74
2023/12/27 07:16:45;;;;;;;11.10;10.30;;;;;;;9.83;78.44;93453.94;5078087;28;20330;-75
2023/12/27 07:19:10;;;;;;;12.50;11.40;;;;;;;9.82;78.29;93468.03;5063824;28;20182;-74
2023/12/27 07:21:36;;;;;;;11.43;10.63;;;;;;;9.85;77.86;93467.53;5064141;28;20240;-74
2023/12/27 07:24:01;;;;;;;11.13;10.33;;;;;;;9.78;78.18;93480.00;5064208;28;20198;-75
2023/12/27 07:26:26;;;;;;;12.63;11.63;;;;;;;9.93;79.12;93479.31;5065732;28;20193;-74
2023/12/27 07:28:52;;;;;;;14.97;13.43;;;;;;;9.90;78.04;93475.34;5064087;28;20205;-75
2023/12/27 07:31:18;;;;;;;12.80;11.60;;;;;;;9.89;78.22;93471.19;5064759;28;20181;-74
2023/12/27 07:33:43;;;;;;;12.40;11.33;;;;;;;10.04;77.98;93484.31;5067602;28;20247;-74
2023/12/27 07:36:08;;;;;;;13.47;12.10;;;;;;;9.88;78.50;93469.63;5065640;28;20193;-77
2023/12/27 07:38:34;;;;;;;13.07;11.90;;;;;;;10.04;78.47;93499.97;5070137;28;20209;-74
2023/12/27 07:41:00;;;;;;;12.37;11.43;;;;;;;9.94;78.47;93479.06;5076099;28;20169;-75
2023/12/27 07:43:25;;;;;;;13.47;11.87;;;;;;;10.02;79.62;93493.44;5057304;28;20225;-73
2023/12/27 07:45:50;;;;;;;12.80;11.70;;;;;;;10.01;78.46;93503.06;5073145;28;20165;-75
2023/12/27 07:48:16;;;;;;;11.40;10.60;;;;;;;10.11;78.23;93487.53;5068620;28;20232;-75
2023/12/27 07:50:42;;;;;;;12.27;11.10;;;;;;;10.04;78.31;93486.91;5056314;28;20186;-79
2023/12/27 07:53:08;;;;;;;12.97;11.67;;;;;;;10.05;77.29;93477.28;5061944;28;20213;-74
2023/12/27 07:55:34;;;;;;;11.53;10.67;;;;;;;10.20;77.47;93477.38;5070477;28;20204;-78
2023/12/27 07:57:59;;;;;;;10.90;10.10;;;;;;;10.27;78.57;93460.47;5066384;28;20237;-76
2023/12/27 08:00:24;;;;;;;12.93;11.57;;;;;;;10.21;75.93;93466.66;5067191;28;20190;-82
2023/12/27 08:02:50;;;;;;;11.70;10.90;;;;;;;10.26;76.47;93489.41;5069635;28;20225;-75
2023/12/27 08:05:18;;;;;;;11.37;10.50;;;;;;;10.36;76.21;93515.56;5057269;28;20197;-77
2023/12/27 08:07:44;;;;;;;12.03;10.93;;;;;;;10.43;76.01;93497.84;5075117;28;20319;-80
2023/12/27 08:10:09;;;;;;;12.77;11.87;;;;;;;10.50;76.08;93509.63;5064242;28;20193;-85
2023/12/27 08:12:35;;;;;;;11.87;10.73;;;;;;;10.49;76.00;93500.19;5068391;28;20225;-79
2023/12/27 08:15:00;;;;;;;10.17;9.53;;;;;;;10.43;75.41;93503.84;5066151;28;20203;-81
2023/12/27 08:17:26;;;;;;;10.53;9.83;;;;;;;10.57;74.64;93507.53;5067440;28;20221;-76
2023/12/27 08:19:53;;;;;;;11.13;10.13;;;;;;;10.60;73.06;93511.47;5063384;28;20232;-76
2023/12/27 08:22:19;;;;;;;11.03;10.03;;;;;;;10.80;73.02;93527.97;5068719;28;20244;-76
2023/12/27 08:24:44;;;;;;;11.37;10.47;;;;;;;10.79;73.31;93523.00;5059392;28;20198;-78
2023/12/27 08:27:09;;;;;;;11.27;10.47;;;;;;;10.60;72.72;93507.03;5064388;28;20229;-79
2023/12/27 08:29:35;;;;;;;10.87;10.27;;;;;;;10.81;72.70;93518.31;5066512;28;20221;-76
2023/12/27 08:32:00;;;;;;;10.57;9.90;;;;;;;10.89;72.88;93529.06;5068960;28;20232;-78
2023/12/27 08:34:25;;;;;;;10.50;9.70;;;;;;;10.87;71.92;93527.75;5061101;28;20189;-82
2023/12/27 08:36:51;;;;;;;10.40;9.70;;;;;;;10.84;72.57;93526.44;5065834;28;20221;-76
2023/12/27 08:39:16;;;;;;;10.60;9.70;;;;;;;11.08;72.20;93535.38;5065138;28;20200;-79
2023/12/27 08:41:41;;;;;;;12.47;11.47;;;;;;;11.02;72.80;93541.63;5063391;28;20229;-76
2023/12/27 08:44:07;;;;;;;12.03;10.90;;;;;;;11.05;72.62;93556.78;5046863;28;20188;-76
2023/12/27 08:46:33;;;;;;;11.23;10.20;;;;;;;10.96;71.53;93554.94;5035905;28;20268;-77
2023/12/27 08:48:58;;;;;;;11.77;10.93;;;;;;;11.00;72.15;93553.38;5046023;28;20218;-77
2023/12/27 08:51:24;;;;;;;10.27;9.50;;;;;;;10.98;72.33;93551.03;5045671;28;20255;-76
2023/12/27 08:53:49;;;;;;;12.97;11.47;;;;;;;10.98;72.04;93545.81;5041891;28;20186;-77
2023/12/27 08:56:14;;;;;;;11.20;10.23;;;;;;;11.10;71.92;93558.63;5035644;28;20190;-77
2023/12/27 08:58:40;;;;;;;11.40;10.40;;;;;;;11.01;71.64;93560.97;5042158;28;20226;-77
2023/12/27 09:01:05;;;;;;;11.53;10.43;;;;;;;11.11;71.84;93566.22;5041641;28;20186;-78
2023/12/27 09:03:31;;;;;;;12.10;11.33;;;;;;;11.13;72.34;93548.44;5044133;28;20222;-78
2023/12/27 09:05:56;;;;;;;10.03;9.33;;;;;;;11.09;71.95;93573.53;5044539;28;20254;-78
2023/12/27 09:08:21;;;;;;;11.03;10.17;;;;;;;11.16;71.73;93566.22;5044130;28;20218;-76
2023/12/27 09:10:47;;;;;;;11.67;10.57;;;;;;;11.12;71.93;93567.00;5048580;28;20253;-77
2023/12/27 09:13:12;;;;;;;11.53;10.63;;;;;;;11.21;72.41;93561.00;5045775;28;20213;-78
2023/12/27 09:15:37;;;;;;;12.27;11.07;;;;;;;11.23;72.16;93571.22;5047787;28;20197;-73
2023/12/27 09:18:03;;;;;;;11.93;10.77;;;;;;;11.19;72.49;93551.88;5043580;28;20214;-73
2023/12/27 09:20:28;;;;;;;11.73;10.60;;;;;;;11.44;72.36;93549.28;5043120;28;20245;-74
2023/12/27 09:22:54;;;;;;;12.43;11.50;;;;;;;11.34;72.44;93534.38;5046770;28;20226;-73
2023/12/27 09:25:19;;;;;;;11.43;10.50;;;;;;;11.19;72.73;93541.41;5046191;28;20189;-76
2023/12/27 09:27:46;;;;;;;10.90;10.00;;;;;;;11.23;72.84;93537.22;5038622;28;20226;-75
2023/12/27 09:30:12;;;;;;;12.17;11.10;;;;;;;11.31;71.45;93534.09;5046493;28;20191;-77
2023/12/27 09:32:40;;;;;;;11.33;10.27;;;;;;;11.37;69.72;93530.44;5045785;28;20226;-75
2023/12/27 09:35:05;;;;;;;11.87;10.73;;;;;;;11.36;69.65;93529.66;5041047;28;20284;-75
2023/12/27 09:37:31;;;;;;;11.83;11.03;;;;;;;11.36;69.66;93534.13;5045863;28;20217;-75
2023/12/27 09:39:56;;;;;;;12.27;11.30;;;;;;;11.36;69.60;93515.81;5043414;28;20261;-75
2023/12/27 09:42:22;;;;;;;11.47;10.57;;;;;;;11.38;69.18;93505.09;5053863;28;20225;-76
2023/12/27 09:44:48;;;;;;;10.63;9.83;;;;;;;11.59;68.75;93498.81;5064150;28;20181;-76
2023/12/27 09:47:16;;;;;;;11.63;10.93;;;;;;;11.45;68.99;93503.00;5063428;28;20220;-75
2023/12/27 09:49:41;;;;;;;11.23;10.37;;;;;;;11.52;68.57;93503.53;5059242;28;20210;-76
2023/12/27 09:52:08;;;;;;;11.03;10.07;;;;;;;11.52;68.74;93503.53;5066894;28;20290;-77
2023/12/27 09:54:34;;;;;;;11.20;10.50;;;;;;;11.43;68.40;93465.84;5063364;28;20200;-76
2023/12/27 09:57:00;;;;;;;11.00;10.13;;;;;;;11.62;68.46;93503.50;5062629;28;20237;-77
2023/12/27 09:59:28;;;;;;;11.97;10.80;;;;;;;11.75;68.32;93503.03;5062733;28;20233;-77
2023/12/27 10:01:59;;;;;;;12.00;11.00;;;;;;;11.44;67.50;93451.75;5068226;28;20228;-77
2023/12/27 10:04:29;;;;;;;11.00;9.93;;;;;;;11.77;67.72;93506.94;5062481;28;20193;-74
2023/12/27 10:06:56;;;;;;;11.10;10.10;;;;;;;11.54;67.75;93465.59;5057010;28;20238;-76
2023/12/27 10:09:23;;;;;;;11.57;10.80;;;;;;;11.67;67.89;93511.41;5075276;28;20308;-76
2023/12/27 10:11:48;;;;;;;11.07;10.23;;;;;;;11.74;68.07;93511.91;5060499;28;20221;-74
2023/12/27 10:14:14;;;;;;;11.57;10.47;;;;;;;11.84;67.96;93515.31;5062005;28;20243;-75
2023/12/27 10:16:39;;;;;;;11.17;10.27;;;;;;;11.90;68.49;93521.31;5060965;28;20241;-75
2023/12/27 10:19:05;;;;;;;12.00;11.20;;;;;;;11.81;67.85;93533.38;5068659;28;20176;-75
2023/12/27 10:21:44;;;;;;;12.37;11.57;;;;;;;11.84;68.31;93527.59;5067306;28;20231;-74
2023/12/27 10:24:11;;;;;;;12.10;11.20;;;;;;;11.98;67.61;93524.19;5062480;28;20228;-77
2023/12/27 10:26:36;;;;;;;12.10;11.20;;;;;;;11.86;67.73;93512.44;5068890;28;20194;-82
2023/12/27 10:29:03;;;;;;;11.43;10.47;;;;;;;11.99;67.42;93517.09;5063620;28;20213;-82
2023/12/27 10:31:29;;;;;;;10.23;9.40;;;;;;;11.79;67.36;93494.38;5069310;28;20193;-80
2023/12/27 10:33:55;;;;;;;10.70;9.90;;;;;;;11.89;67.45;93494.34;5067549;28;20207;-79
2023/12/27 10:36:21;;;;;;;12.57;11.70;;;;;;;11.97;67.46;93485.97;5069995;28;20197;-79
2023/12/27 10:38:46;;;;;;;12.80;11.70;;;;;;;12.16;67.08;93486.97;5069369;28;20187;-81
2023/12/27 10:41:12;;;;;;;10.33;9.63;;;;;;;12.15;67.12;93474.94;5071882;28;20186;-81
2023/12/27 10:43:37;;;;;;;11.37;10.47;;;;;;;12.21;66.92;93486.19;5042688;28;20215;-80
2023/12/27 10:46:09;;;;;;;11.70;10.57;;;;;;;12.21;66.92;93473.09;5050704;28;20198;-80
2023/12/27 10:48:39;;;;;;;11.63;10.53;;;;;;;12.23;67.50;93481.47;5065068;28;20233;-83
2023/12/27 10:51:06;;;;;;;11.80;10.80;;;;;;;12.15;66.99;93497.72;5080423;28;20207;-78
2023/12/27 10:53:35;;;;;;;11.23;10.50;;;;;;;12.06;67.41;93488.84;5077791;28;20249;-80
2023/12/27 10:56:02;;;;;;;11.07;10.30;;;;;;;12.14;66.78;93490.91;5060595;28;20191;-79
2023/12/27 10:58:29;;;;;;;12.23;9.50;;;;;;;12.08;66.75;93465.78;5060353;28;20224;-80
2023/12/27 11:00:56;;;;;;;10.60;9.47;;;;;;;12.33;65.88;93503.16;5065128;28;20197;-78
2023/12/27 11:03:22;;;;;;;10.33;9.57;;;;;;;12.27;66.56;93487.72;5063834;28;20233;-79
2023/12/27 11:05:50;;;;;;;10.33;9.73;;;;;;;12.25;65.45;93487.22;5080714;28;20192;-84
2023/12/27 11:08:18;;;;;;;10.47;9.77;;;;;;;12.20;65.82;93474.91;5059689;28;20259;-80
2023/12/27 11:10:45;;;;;;;11.07;10.20;;;;;;;12.33;66.00;93476.97;5063697;28;20219;-80
2023/12/27 11:13:11;;;;;;;11.53;10.53;;;;;;;12.37;65.32;93485.09;5070505;28;20220;-80
2023/12/27 11:15:39;;;;;;;11.27;10.37;;;;;;;12.34;64.91;93499.47;5069125;28;20181;-79